Time;durP1;ratioP1;P1;durP2;ratioP2;P2;SDS_P1;SDS_P2;PMS_P1;PMS_P2;Temp;Humidity;BMP_temperature;BMP_pressure;BME280_temperature;BME280_humidity;BME280_pressure;Samples;Min_cycle;Max_cycle;Signal;HPM_P1;HPM_P2
2022/09/17 00:00:44;;;;;;;13.63;7.10;;;;;;;17.87;100.00;93882.56;5154026;27;20206;-79
2022/09/17 00:03:11;;;;;;;11.85;6.60;;;;;;;17.88;100.00;93868.34;5153683;27;20253;-79
2022/09/17 00:05:38;;;;;;;11.68;7.07;;;;;;;17.90;100.00;93873.31;5154294;27;20207;-79
2022/09/17 00:08:05;;;;;;;11.60;7.20;;;;;;;17.86;100.00;93873.13;5153333;27;20199;-78
2022/09/17 00:10:33;;;;;;;14.50;6.63;;;;;;;17.85;100.00;93865.50;5147166;27;20198;-79
2022/09/17 00:13:00;;;;;;;16.50;6.65;;;;;;;17.87;100.00;93852.84;5153734;27;20199;-78
2022/09/17 00:15:28;;;;;;;15.43;7.10;;;;;;;17.95;100.00;93846.97;5153730;27;20206;-78
2022/09/17 00:17:56;;;;;;;10.70;6.03;;;;;;;17.92;100.00;93850.94;5149342;27;20202;-79
2022/09/17 00:20:23;;;;;;;9.43;5.78;;;;;;;17.91;100.00;93843.34;5153439;27;20207;-78
2022/09/17 00:22:50;;;;;;;12.05;6.68;;;;;;;17.97;100.00;93842.22;5152187;27;20641;-78
2022/09/17 00:25:17;;;;;;;10.13;6.28;;;;;;;17.96;100.00;93848.53;5153216;27;20313;-78
2022/09/17 00:27:45;;;;;;;14.77;6.50;;;;;;;17.98;100.00;93841.91;5153032;27;20205;-78
2022/09/17 00:30:13;;;;;;;12.32;6.43;;;;;;;17.92;100.00;93845.69;5153067;27;20676;-79
2022/09/17 00:32:41;;;;;;;10.20;6.40;;;;;;;17.96;100.00;93845.91;5153358;27;20202;-79
2022/09/17 00:35:08;;;;;;;9.95;6.18;;;;;;;17.98;100.00;93846.38;5146377;27;20203;-77
2022/09/17 00:37:36;;;;;;;12.60;6.85;;;;;;;18.01;100.00;93859.75;5153046;27;20203;-78
2022/09/17 00:40:03;;;;;;;15.40;6.80;;;;;;;18.03;100.00;93855.03;5153648;27;20219;-78
2022/09/17 00:42:30;;;;;;;12.23;6.35;;;;;;;17.98;100.00;93860.31;5152748;27;20202;-80
2022/09/17 00:44:58;;;;;;;11.52;5.85;;;;;;;17.97;100.00;93858.78;5153344;27;20577;-80
2022/09/17 00:47:29;;;;;;;12.13;6.20;;;;;;;17.94;100.00;93864.59;5153135;27;20210;-79
2022/09/17 00:50:02;;;;;;;17.38;6.65;;;;;;;17.91;100.00;93865.16;5152981;27;20574;-78
2022/09/17 00:52:33;;;;;;;15.10;7.28;;;;;;;17.88;100.00;93875.47;5153294;27;20314;-79
2022/09/17 00:55:07;;;;;;;10.90;6.32;;;;;;;17.90;100.00;93889.09;5146699;27;20251;-79
2022/09/17 00:57:35;;;;;;;10.15;6.50;;;;;;;17.93;100.00;93872.75;5152165;27;20197;-79
2022/09/17 01:00:04;;;;;;;11.98;6.85;;;;;;;17.88;100.00;93872.81;5152981;27;20219;-79
2022/09/17 01:02:31;;;;;;;16.13;7.13;;;;;;;17.92;100.00;93881.72;5152648;27;20198;-79
2022/09/17 01:04:59;;;;;;;16.05;7.65;;;;;;;17.93;100.00;93876.16;5152747;27;20279;-79
2022/09/17 01:07:44;;;;;;;12.50;6.85;;;;;;;17.97;100.00;93869.28;5153439;27;20202;-79
2022/09/17 01:10:23;;;;;;;12.52;7.05;;;;;;;17.97;100.00;93871.13;5146237;27;20287;-79
2022/09/17 01:13:02;;;;;;;14.93;6.65;;;;;;;18.02;100.00;93858.69;5153373;27;20190;-79
2022/09/17 01:15:38;;;;;;;12.20;7.25;;;;;;;17.88;100.00;93857.84;5146672;27;20196;-78
2022/09/17 01:18:20;;;;;;;15.48;6.90;;;;;;;17.75;100.00;93837.47;5142491;27;20205;-78
2022/09/17 01:21:29;;;;;;;11.93;6.45;;;;;;;17.64;100.00;93857.06;5153147;27;20279;-79
2022/09/17 01:24:29;;;;;;;12.40;7.13;;;;;;;17.55;100.00;93854.28;5097388;27;20203;-80
2022/09/17 01:27:24;;;;;;;16.30;6.90;;;;;;;17.60;100.00;93853.47;5118775;27;20199;-79
2022/09/17 01:30:11;;;;;;;9.05;6.13;;;;;;;17.71;100.00;93862.78;5153304;27;20195;-79
2022/09/17 01:32:45;;;;;;;9.73;6.33;;;;;;;17.76;100.00;93840.91;5152600;27;20214;-78
2022/09/17 01:35:20;;;;;;;10.47;6.40;;;;;;;17.80;100.00;93840.06;5151955;27;20664;-79
2022/09/17 01:37:54;;;;;;;9.25;6.15;;;;;;;17.86;100.00;93828.44;5152097;27;20194;-79
2022/09/17 01:40:26;;;;;;;11.17;6.27;;;;;;;17.82;100.00;93813.50;5152250;27;20685;-78
2022/09/17 01:43:02;;;;;;;13.73;7.10;;;;;;;17.69;100.00;93820.22;5152867;27;20198;-79
2022/09/17 01:45:35;;;;;;;15.87;6.50;;;;;;;17.67;100.00;93787.41;5151990;27;20205;-78
2022/09/17 01:48:10;;;;;;;15.47;6.43;;;;;;;17.67;100.00;93811.84;5152088;27;20260;-78
2022/09/17 01:50:42;;;;;;;11.40;6.28;;;;;;;17.50;100.00;93846.44;5152274;27;20664;-77
2022/09/17 01:53:11;;;;;;;11.63;6.50;;;;;;;17.40;100.00;93862.28;5151394;27;20713;-77
2022/09/17 01:55:43;;;;;;;10.17;6.47;;;;;;;17.40;100.00;93864.91;5145509;27;20613;-77
2022/09/17 01:58:17;;;;;;;12.03;5.90;;;;;;;17.46;100.00;93840.16;5152381;27;20202;-79
2022/09/17 02:00:48;;;;;;;13.23;6.30;;;;;;;17.45;100.00;93848.34;5132790;27;20226;-79
2022/09/17 02:03:21;;;;;;;9.88;5.50;;;;;;;17.47;100.00;93827.81;5152877;27;20220;-77
2022/09/17 02:05:53;;;;;;;12.13;5.90;;;;;;;17.48;100.00;93817.03;5145306;27;20198;-78
2022/09/17 02:08:23;;;;;;;14.90;5.80;;;;;;;17.46;100.00;93771.84;5151863;27;20206;-78
2022/09/17 02:10:56;;;;;;;13.93;6.00;;;;;;;17.41;100.00;93776.38;5152566;27;20202;-78
2022/09/17 02:13:28;;;;;;;10.75;6.00;;;;;;;17.50;100.00;93758.94;5152263;27;20214;-78
2022/09/17 02:16:02;;;;;;;12.10;6.03;;;;;;;17.50;100.00;93727.41;5152162;27;20695;-79
2022/09/17 02:18:37;;;;;;;12.33;6.07;;;;;;;17.48;100.00;93732.97;5149129;27;20567;-79
2022/09/17 02:21:08;;;;;;;8.73;5.73;;;;;;;17.39;100.00;93712.84;5152550;27;20208;-79
2022/09/17 02:23:40;;;;;;;14.70;5.93;;;;;;;17.46;100.00;93727.19;5152033;27;20571;-79
2022/09/17 02:26:10;;;;;;;11.57;5.97;;;;;;;17.46;100.00;93703.56;5151732;27;20195;-79
2022/09/17 02:28:43;;;;;;;16.13;6.27;;;;;;;17.32;100.00;93721.06;5131827;27;20203;-79
2022/09/17 02:31:10;;;;;;;8.67;5.80;;;;;;;17.33;100.00;93727.91;5146210;27;20195;-79
2022/09/17 02:33:41;;;;;;;11.07;5.77;;;;;;;17.27;100.00;93754.50;5152444;27;20286;-79
2022/09/17 02:36:08;;;;;;;9.53;5.73;;;;;;;17.27;100.00;93767.63;5152011;27;20259;-80
2022/09/17 02:38:36;;;;;;;10.60;5.87;;;;;;;17.10;100.00;93748.94;5152311;27;20190;-78
2022/09/17 02:41:13;;;;;;;12.10;5.63;;;;;;;16.97;100.00;93724.91;5151764;27;20199;-78
2022/09/17 02:43:55;;;;;;;11.10;6.10;;;;;;;17.07;100.00;93715.34;5146902;27;20272;-79
2022/09/17 02:46:48;;;;;;;11.60;6.83;;;;;;;16.93;100.00;93694.25;5153933;27;20202;-79
2022/09/17 02:49:30;;;;;;;14.37;6.60;;;;;;;16.92;100.00;93697.94;5149301;27;20202;-78
2022/09/17 02:52:06;;;;;;;11.40;6.70;;;;;;;16.85;100.00;93716.63;5151753;27;20226;-78
2022/09/17 02:54:41;;;;;;;10.27;6.07;;;;;;;17.00;100.00;93726.19;5155829;27;20199;-78
2022/09/17 02:57:15;;;;;;;13.53;5.83;;;;;;;17.11;100.00;93709.28;5155368;27;20205;-80
2022/09/17 02:59:52;;;;;;;8.97;5.90;;;;;;;17.09;100.00;93681.72;5154858;27;20225;-79
2022/09/17 03:02:23;;;;;;;8.53;5.83;;;;;;;17.02;100.00;93696.00;5156213;27;20201;-79
2022/09/17 03:04:52;;;;;;;14.00;5.87;;;;;;;17.10;100.00;93688.53;5155593;27;20193;-79
2022/09/17 03:07:21;;;;;;;13.53;6.17;;;;;;;17.11;100.00;93703.25;5155896;27;20195;-78
2022/09/17 03:09:48;;;;;;;8.63;5.63;;;;;;;17.17;100.00;93707.38;5154798;27;20191;-78
2022/09/17 03:12:16;;;;;;;10.03;5.50;;;;;;;17.10;100.00;93707.72;5142528;27;20199;-78
2022/09/17 03:14:43;;;;;;;8.67;5.47;;;;;;;17.07;100.00;93721.41;5155566;27;20198;-78
2022/09/17 03:17:10;;;;;;;10.10;5.37;;;;;;;17.19;100.00;93713.13;5152277;27;20206;-79
2022/09/17 03:20:02;;;;;;;11.53;5.90;;;;;;;17.13;100.00;93701.88;5148571;27;20295;-79
2022/09/17 03:22:30;;;;;;;11.60;5.47;;;;;;;17.10;100.00;93670.94;5137909;27;20202;-78
2022/09/17 03:24:57;;;;;;;10.43;5.30;;;;;;;17.18;100.00;93651.16;5153326;27;20203;-80
2022/09/17 03:27:24;;;;;;;10.57;5.70;;;;;;;17.17;100.00;93684.50;5150841;27;20202;-80
2022/09/17 03:29:51;;;;;;;10.60;5.13;;;;;;;17.19;100.00;93689.47;5156167;27;20190;-79
2022/09/17 03:32:17;;;;;;;10.30;5.47;;;;;;;17.14;100.00;93656.19;5155051;27;20210;-79
2022/09/17 03:34:45;;;;;;;11.10;5.97;;;;;;;17.17;100.00;93695.00;5155164;27;20572;-79
2022/09/17 03:37:12;;;;;;;10.60;5.73;;;;;;;17.10;100.00;93678.03;5155119;27;20206;-78
2022/09/17 03:39:40;;;;;;;10.47;5.47;;;;;;;17.05;100.00;93671.00;5153505;27;20241;-78
2022/09/17 03:42:07;;;;;;;5.80;4.97;;;;;;;17.07;100.00;93682.00;5149833;27;20209;-78
2022/09/17 03:44:34;;;;;;;10.20;5.37;;;;;;;17.13;100.00;93669.59;5155008;27;20206;-78
2022/09/17 03:47:01;;;;;;;10.50;5.27;;;;;;;17.17;100.00;93666.09;5153785;27;20199;-78
2022/09/17 03:49:28;;;;;;;15.23;6.10;;;;;;;17.25;100.00;93670.75;5154544;27;20206;-79
2022/09/17 03:51:54;;;;;;;14.07;5.47;;;;;;;17.27;100.00;93681.75;5155305;27;20230;-80
2022/09/17 03:54:21;;;;;;;9.10;5.57;;;;;;;17.33;100.00;93661.44;5155636;27;20198;-79
2022/09/17 03:56:50;;;;;;;11.40;5.43;;;;;;;17.21;100.00;93668.97;5154315;27;20648;-77
2022/09/17 03:59:17;;;;;;;13.07;5.97;;;;;;;17.27;100.00;93681.75;5154179;27;20202;-77
2022/09/17 04:01:43;;;;;;;12.57;5.70;;;;;;;17.34;100.00;93681.41;5154550;27;20210;-78
2022/09/17 04:04:10;;;;;;;13.13;5.80;;;;;;;17.38;100.00;93692.91;5154480;27;20199;-78
2022/09/17 04:06:37;;;;;;;11.47;6.07;;;;;;;17.50;100.00;93688.00;5154496;27;20305;-78
2022/09/17 04:09:04;;;;;;;12.70;5.80;;;;;;;17.51;100.00;93698.25;5154921;27;20645;-79
2022/09/17 04:11:31;;;;;;;9.93;6.00;;;;;;;17.54;100.00;93694.28;5147627;27;20210;-78
2022/09/17 04:14:00;;;;;;;10.10;5.97;;;;;;;17.61;100.00;93714.94;5154143;27;20695;-79
2022/09/17 04:16:26;;;;;;;14.50;6.30;;;;;;;17.53;100.00;93714.50;5154296;27;20202;-79
2022/09/17 04:18:53;;;;;;;13.02;6.40;;;;;;;17.43;100.00;93742.75;5137966;27;20207;-78
2022/09/17 04:21:20;;;;;;;14.97;6.23;;;;;;;17.52;100.00;93765.47;5140471;27;20292;-78
2022/09/17 04:23:47;;;;;;;11.13;6.33;;;;;;;17.53;100.00;93768.88;5153069;27;20199;-79
2022/09/17 04:26:14;;;;;;;12.13;6.00;;;;;;;17.49;100.00;93773.13;5146609;27;20540;-78
2022/09/17 04:28:41;;;;;;;13.13;6.50;;;;;;;17.45;100.00;93774.78;5153779;27;20203;-78
2022/09/17 04:31:09;;;;;;;17.30;6.97;;;;;;;17.41;100.00;93776.38;5153606;27;20202;-77
2022/09/17 04:33:36;;;;;;;12.10;5.63;;;;;;;17.41;100.00;93789.53;5152102;27;20214;-78
2022/09/17 04:36:03;;;;;;;14.30;6.23;;;;;;;17.47;100.00;93785.78;5147119;27;20207;-79
2022/09/17 04:38:32;;;;;;;15.87;6.67;;;;;;;17.53;100.00;93810.94;5153646;27;20198;-77
2022/09/17 04:40:59;;;;;;;7.43;5.90;;;;;;;17.48;100.00;93821.50;5153083;27;20689;-76
2022/09/17 04:43:26;;;;;;;13.27;5.73;;;;;;;17.46;100.00;93821.78;5153206;27;20202;-76
2022/09/17 04:45:53;;;;;;;11.40;5.17;;;;;;;17.50;100.00;93819.38;5153435;27;20664;-76
2022/09/17 04:48:21;;;;;;;15.87;5.40;;;;;;;17.55;100.00;93820.13;5152621;27;20206;-76
2022/09/17 04:50:48;;;;;;;11.70;5.20;;;;;;;17.63;100.00;93829.25;5153163;27;20194;-75
2022/09/17 04:53:15;;;;;;;17.83;5.90;;;;;;;17.66;100.00;93847.09;5152930;27;20591;-75
2022/09/17 04:55:42;;;;;;;10.93;5.20;;;;;;;17.71;100.00;93851.47;5153121;27;20817;-75
2022/09/17 04:58:10;;;;;;;13.57;6.33;;;;;;;17.73;100.00;93868.53;5153576;27;20224;-75
2022/09/17 05:00:37;;;;;;;16.77;8.07;;;;;;;17.76;100.00;93864.56;5153175;27;20221;-75
2022/09/17 05:03:04;;;;;;;11.95;5.82;;;;;;;17.85;100.00;93870.75;5141488;27;20699;-74
2022/09/17 05:05:32;;;;;;;10.85;5.15;;;;;;;17.90;100.00;93857.53;5135046;27;20196;-76
2022/09/17 05:07:59;;;;;;;10.93;4.53;;;;;;;18.02;100.00;93840.28;5137861;27;20202;-76
2022/09/17 05:10:26;;;;;;;13.43;4.25;;;;;;;18.06;100.00;93843.16;5136758;27;20197;-77
2022/09/17 05:12:54;;;;;;;9.07;3.50;;;;;;;18.20;100.00;93835.31;5133978;27;20669;-75
2022/09/17 05:15:22;;;;;;;11.53;3.90;;;;;;;18.21;100.00;93829.00;5132822;27;20195;-76
2022/09/17 05:17:49;;;;;;;9.97;3.70;;;;;;;18.23;100.00;93837.38;5135384;27;20207;-75
2022/09/17 05:20:17;;;;;;;13.57;3.67;;;;;;;18.28;100.00;93827.56;5135072;27;20226;-76
2022/09/17 05:22:47;;;;;;;7.53;3.27;;;;;;;18.34;100.00;93812.50;5137574;27;20202;-75
2022/09/17 05:25:15;;;;;;;11.30;4.00;;;;;;;18.37;100.00;93798.75;5133033;27;20588;-76
2022/09/17 05:27:42;;;;;;;9.18;3.30;;;;;;;18.35;100.00;93788.53;5133446;27;20194;-76
2022/09/17 05:30:10;;;;;;;10.43;3.47;;;;;;;18.42;100.00;93796.03;5135387;27;20666;-76
2022/09/17 05:32:40;;;;;;;9.77;3.78;;;;;;;18.43;100.00;93802.88;5135328;27;20198;-76
2022/09/17 05:35:09;;;;;;;12.30;3.85;;;;;;;18.52;100.00;93799.34;5137653;27;20198;-76
2022/09/17 05:37:43;;;;;;;11.95;4.05;;;;;;;18.55;100.00;93808.50;5132346;27;20585;-76
2022/09/17 05:40:15;;;;;;;10.38;3.30;;;;;;;18.56;100.00;93808.22;5133035;27;20210;-76
2022/09/17 05:42:42;;;;;;;9.32;3.72;;;;;;;18.54;100.00;93810.34;5133447;27;20945;-76
2022/09/17 05:45:10;;;;;;;9.43;3.60;;;;;;;18.49;100.00;93813.06;5152103;27;20198;-76
2022/09/17 05:47:37;;;;;;;10.35;3.83;;;;;;;18.52;100.00;93820.41;5151286;27;20201;-76
2022/09/17 05:50:04;;;;;;;7.60;3.35;;;;;;;18.59;100.00;93817.38;5152299;27;20233;-76
2022/09/17 05:52:31;;;;;;;7.18;3.22;;;;;;;18.65;100.00;93821.50;5151676;27;20227;-76
2022/09/17 05:54:58;;;;;;;11.40;4.22;;;;;;;18.74;100.00;93813.72;5151590;27;20310;-75
2022/09/17 05:57:29;;;;;;;9.38;4.45;;;;;;;18.78;100.00;93818.13;5152006;27;20226;-75
2022/09/17 05:59:56;;;;;;;8.95;3.63;;;;;;;18.84;100.00;93819.63;5152244;27;20218;-76
2022/09/17 06:02:23;;;;;;;6.90;3.60;;;;;;;18.82;100.00;93816.47;5152246;27;20198;-74
2022/09/17 06:04:50;;;;;;;10.85;3.83;;;;;;;18.78;100.00;93807.59;5151787;27;20205;-74
2022/09/17 06:07:17;;;;;;;10.35;4.78;;;;;;;18.82;100.00;93810.41;5151906;27;20206;-77
2022/09/17 06:09:44;;;;;;;10.77;3.45;;;;;;;18.84;100.00;93819.63;5152095;27;20297;-78
2022/09/17 06:12:10;;;;;;;8.38;3.53;;;;;;;18.81;100.00;93836.00;5149264;27;20661;-75
2022/09/17 06:14:39;;;;;;;10.00;3.67;;;;;;;18.81;100.00;93851.00;5129298;27;20203;-74
2022/09/17 06:17:05;;;;;;;9.02;3.80;;;;;;;18.76;100.00;93861.63;5139251;27;20199;-75
2022/09/17 06:19:32;;;;;;;9.60;3.75;;;;;;;18.70;100.00;93874.84;5142234;27;20202;-75
2022/09/17 06:22:00;;;;;;;10.32;3.80;;;;;;;18.62;100.00;93878.13;5138513;27;20956;-76
2022/09/17 06:24:26;;;;;;;9.23;4.00;;;;;;;18.65;100.00;93871.50;5133326;27;20578;-78
2022/09/17 06:26:54;;;;;;;12.38;4.35;;;;;;;18.61;100.00;93894.22;5155709;27;20198;-79
2022/09/17 06:29:21;;;;;;;8.38;4.18;;;;;;;18.66;100.00;93905.47;5156457;27;20206;-73
2022/09/17 06:31:50;;;;;;;7.22;4.00;;;;;;;18.66;100.00;93912.56;5155543;27;20198;-75
2022/09/17 06:34:17;;;;;;;9.05;3.63;;;;;;;18.61;100.00;93916.03;5154984;27;20202;-76
2022/09/17 06:36:44;;;;;;;9.15;3.15;;;;;;;18.63;100.00;93921.81;5155699;27;20263;-76
2022/09/17 06:39:12;;;;;;;8.05;3.50;;;;;;;18.67;100.00;93917.53;5155361;27;20294;-76
2022/09/17 06:41:40;;;;;;;8.18;3.15;;;;;;;18.65;100.00;93903.09;5143531;27;20207;-75
2022/09/17 06:44:07;;;;;;;5.32;3.28;;;;;;;18.54;100.00;93897.22;5145365;27;20282;-75
2022/09/17 06:46:34;;;;;;;7.45;3.63;;;;;;;18.63;100.00;93881.56;5155969;27;20202;-75
2022/09/17 06:49:02;;;;;;;7.90;3.50;;;;;;;18.65;100.00;93876.78;5153728;27;20645;-75
2022/09/17 06:51:30;;;;;;;7.70;3.60;;;;;;;18.74;100.00;93874.28;5155403;27;20225;-75
2022/09/17 06:53:57;;;;;;;9.63;3.60;;;;;;;18.81;100.00;93864.97;5155793;27;20198;-76
2022/09/17 06:56:23;;;;;;;9.60;3.42;;;;;;;18.66;100.00;93852.81;5155733;27;20238;-76
2022/09/17 06:58:51;;;;;;;12.68;3.63;;;;;;;18.71;100.00;93862.47;5155516;27;20214;-76
2022/09/17 07:01:18;;;;;;;8.13;3.33;;;;;;;18.77;100.00;93855.28;5155462;27;20222;-77
2022/09/17 07:03:45;;;;;;;12.45;3.72;;;;;;;18.84;100.00;93842.53;5147982;27;20633;-77
2022/09/17 07:06:13;;;;;;;10.13;3.45;;;;;;;18.89;100.00;93831.91;5155624;27;20213;-77
2022/09/17 07:08:40;;;;;;;10.18;4.07;;;;;;;18.99;100.00;93813.31;5155298;27;20232;-77
2022/09/17 07:11:08;;;;;;;8.10;4.30;;;;;;;19.04;100.00;93810.56;5151263;27;20198;-76
2022/09/17 07:13:35;;;;;;;10.93;4.18;;;;;;;19.17;100.00;93812.44;5141260;27;20287;-76
2022/09/17 07:16:03;;;;;;;9.02;4.60;;;;;;;19.29;100.00;93807.47;5147931;27;20202;-75
2022/09/17 07:18:30;;;;;;;14.18;4.40;;;;;;;19.44;100.00;93793.25;5150759;27;20217;-75
2022/09/17 07:20:59;;;;;;;11.18;4.60;;;;;;;19.54;100.00;93782.50;5151486;27;20219;-76
2022/09/17 07:23:29;;;;;;;14.80;4.35;;;;;;;19.60;100.00;93762.88;5151788;27;20216;-75
2022/09/17 07:25:57;;;;;;;10.70;4.82;;;;;;;19.65;100.00;93755.63;5155168;27;20198;-76
2022/09/17 07:28:25;;;;;;;11.82;4.85;;;;;;;19.67;100.00;93794.91;5155162;27;20198;-76
2022/09/17 07:30:53;;;;;;;14.32;4.57;;;;;;;19.79;100.00;93803.09;5154704;27;20290;-75
2022/09/17 07:33:23;;;;;;;11.85;4.60;;;;;;;19.81;100.00;93799.06;5154119;27;20668;-76
2022/09/17 07:35:54;;;;;;;17.02;5.25;;;;;;;19.76;100.00;93801.03;5155035;27;20692;-83
2022/09/17 07:38:22;;;;;;;12.55;5.35;;;;;;;19.83;100.00;93786.38;5148047;27;20284;-75
2022/09/17 07:40:56;;;;;;;11.13;5.00;;;;;;;19.98;100.00;93787.91;5154797;27;20243;-75
2022/09/17 07:43:24;;;;;;;9.75;4.80;;;;;;;20.13;100.00;93786.78;5154869;27;20649;-77
2022/09/17 07:45:51;;;;;;;15.63;5.60;;;;;;;20.16;100.00;93775.63;5154648;27;20202;-75
2022/09/17 07:48:18;;;;;;;9.07;4.75;;;;;;;20.31;100.00;93772.69;5148752;27;20206;-76
2022/09/17 07:50:45;;;;;;;10.52;4.47;;;;;;;20.21;100.00;93786.84;5153648;27;20657;-79
2022/09/17 07:53:12;;;;;;;10.07;4.25;;;;;;;20.34;100.00;93788.72;5154050;27;20230;-80
2022/09/17 07:55:39;;;;;;;6.85;3.97;;;;;;;20.45;100.00;93780.53;5154540;27;20202;-78
2022/09/17 07:58:07;;;;;;;11.25;4.00;;;;;;;20.55;100.00;93794.25;5154328;27;20201;-78
2022/09/17 08:00:35;;;;;;;10.60;3.50;;;;;;;20.68;100.00;93790.78;5154424;27;20209;-79
2022/09/17 08:03:02;;;;;;;12.45;3.90;;;;;;;20.80;100.00;93775.19;5154691;27;20203;-79
2022/09/17 08:05:29;;;;;;;8.77;4.03;;;;;;;20.62;100.00;93778.78;5149262;27;20233;-79
2022/09/17 08:07:56;;;;;;;12.05;3.90;;;;;;;20.51;100.00;93769.56;5146003;27;20210;-79
2022/09/17 08:10:23;;;;;;;9.00;3.70;;;;;;;20.73;100.00;93774.81;5149643;27;20210;-79
2022/09/17 08:12:54;;;;;;;9.40;3.67;;;;;;;20.88;100.00;93761.22;5145699;27;20570;-79
2022/09/17 08:15:24;;;;;;;9.68;3.65;;;;;;;20.96;100.00;93759.69;5154314;27;20191;-80
2022/09/17 08:17:51;;;;;;;8.32;3.47;;;;;;;21.16;100.00;93755.78;5151184;27;20199;-78
2022/09/17 08:20:19;;;;;;;9.98;3.25;;;;;;;21.29;100.00;93768.13;5138551;27;20275;-80
2022/09/17 08:22:46;;;;;;;10.75;3.45;;;;;;;21.35;100.00;93765.03;5138880;27;20222;-82
2022/09/17 08:25:12;;;;;;;10.73;3.42;;;;;;;21.37;100.00;93772.66;5147932;27;20207;-81
2022/09/17 08:27:39;;;;;;;7.25;3.25;;;;;;;21.41;100.00;93769.06;5145632;27;20210;-81
2022/09/17 08:30:08;;;;;;;11.90;3.22;;;;;;;21.58;100.00;93770.22;5152782;27;20203;-80
2022/09/17 08:32:36;;;;;;;8.75;3.40;;;;;;;21.81;100.00;93767.16;5148630;27;20212;-80
2022/09/17 08:35:03;;;;;;;6.30;3.28;;;;;;;21.94;100.00;93771.56;5141012;27;20206;-80
2022/09/17 08:37:30;;;;;;;8.93;3.17;;;;;;;22.13;100.00;93768.63;5139112;27;20297;-80
2022/09/17 08:39:58;;;;;;;10.98;3.58;;;;;;;22.24;100.00;93767.22;5153904;27;20285;-81
2022/09/17 08:42:31;;;;;;;9.00;3.05;;;;;;;22.21;100.00;93767.84;5135766;27;20286;-80
2022/09/17 08:44:59;;;;;;;6.28;3.05;;;;;;;22.30;99.98;93755.38;5153644;27;20195;-80
2022/09/17 08:47:30;;;;;;;9.02;2.95;;;;;;;22.42;99.66;93754.75;5148347;27;20199;-80
2022/09/17 08:50:02;;;;;;;7.55;2.95;;;;;;;22.46;98.70;93761.75;5153509;27;20198;-80
2022/09/17 08:53:03;;;;;;;10.07;3.03;;;;;;;22.54;95.32;93766.25;5127053;27;20223;-80
2022/09/17 08:55:40;;;;;;;9.07;3.25;;;;;;;22.56;95.42;93764.09;5140298;27;20210;-80
2022/09/17 08:58:39;;;;;;;7.88;3.53;;;;;;;22.53;96.66;93767.38;5140517;27;20190;-79
2022/09/17 09:01:18;;;;;;;4.95;3.03;;;;;;;22.40;96.33;93770.94;5153602;27;20700;-79
2022/09/17 09:04:04;;;;;;;7.20;3.08;;;;;;;22.23;96.06;93759.56;5153692;27;20591;-79
2022/09/17 09:06:36;;;;;;;11.88;3.08;;;;;;;22.11;97.13;93764.75;5141472;27;20718;-79
2022/09/17 09:09:06;;;;;;;10.38;3.53;;;;;;;21.99;97.35;93770.66;5153707;27;20198;-79
2022/09/17 09:11:34;;;;;;;7.85;3.30;;;;;;;21.78;98.34;93757.19;5154089;27;20194;-78
2022/09/17 09:14:07;;;;;;;6.30;3.50;;;;;;;21.68;99.24;93767.28;5153732;27;20198;-79
2022/09/17 09:16:38;;;;;;;11.05;4.30;;;;;;;21.63;100.00;93773.50;5153364;27;20190;-79
2022/09/17 09:19:18;;;;;;;27.50;10.50;;;;;;;21.63;100.00;93773.50;5150553;27;20209;-80
2022/09/17 09:22:01;;;;;;;13.63;5.25;;;;;;;21.44;100.00;93781.69;5153660;27;20217;-79
2022/09/17 09:24:39;;;;;;;14.13;5.30;;;;;;;21.47;100.00;93794.28;5153662;27;20309;-79
2022/09/17 09:27:17;;;;;;;17.67;8.48;;;;;;;21.46;100.00;93794.63;5152400;27;20202;-79
2022/09/17 09:29:55;;;;;;;84.10;29.83;;;;;;;21.47;100.00;93815.44;5149440;27;20210;-79
2022/09/17 09:32:40;;;;;;;68.63;25.17;;;;;;;21.41;100.00;93814.03;5153676;27;20191;-79
2022/09/17 09:35:17;;;;;;;18.17;7.97;;;;;;;21.33;100.00;93819.28;5140056;27;20242;-79
2022/09/17 09:37:53;;;;;;;12.23;5.07;;;;;;;21.24;100.00;93824.53;5153142;27;20209;-79
2022/09/17 09:40:31;;;;;;;12.80;5.35;;;;;;;21.23;100.00;93832.78;5153949;27;20205;-78
2022/09/17 09:43:01;;;;;;;21.00;13.45;;;;;;;21.21;100.00;93837.59;5149933;27;20210;-80
2022/09/17 09:45:43;;;;;;;13.23;5.35;;;;;;;21.15;100.00;93849.38;5150548;27;20256;-79
2022/09/17 09:48:16;;;;;;;10.82;4.85;;;;;;;20.99;100.00;93851.56;5146416;27;20194;-79
2022/09/17 09:50:48;;;;;;;6.40;3.88;;;;;;;20.73;100.00;93853.25;5152373;27;20198;-80
2022/09/17 09:53:24;;;;;;;10.02;4.72;;;;;;;20.68;100.00;93853.41;5145671;27;20233;-79
2022/09/17 09:56:03;;;;;;;11.23;4.60;;;;;;;20.65;100.00;93870.63;5153033;27;20308;-78
2022/09/17 09:58:34;;;;;;;8.02;3.85;;;;;;;20.45;100.00;93859.75;5145155;27;20210;-78
2022/09/17 10:01:01;;;;;;;10.40;3.97;;;;;;;20.41;100.00;93819.94;5152406;27;20234;-78
2022/09/17 10:03:31;;;;;;;9.70;3.85;;;;;;;20.29;100.00;93802.00;5151955;27;20206;-80
2022/09/17 10:05:59;;;;;;;8.52;3.58;;;;;;;20.25;100.00;93795.00;5152473;27;20195;-79
2022/09/17 10:08:29;;;;;;;9.40;4.80;;;;;;;20.25;100.00;93752.78;5152521;27;20576;-78
2022/09/17 10:10:59;;;;;;;8.73;3.72;;;;;;;20.17;100.00;93748.94;5151932;27;20210;-78
2022/09/17 10:13:28;;;;;;;7.40;4.20;;;;;;;20.00;100.00;93729.59;5152116;27;20628;-78
2022/09/17 10:15:55;;;;;;;8.32;4.35;;;;;;;19.78;100.00;93712.66;5152369;27;20199;-78
2022/09/17 10:18:23;;;;;;;8.40;4.40;;;;;;;19.70;100.00;93696.75;5149520;27;20203;-78
2022/09/17 10:20:59;;;;;;;8.73;3.50;;;;;;;19.71;100.00;93696.44;5152840;27;20198;-79
2022/09/17 10:23:30;;;;;;;5.80;3.80;;;;;;;19.77;100.00;93689.19;5152037;27;20266;-78
2022/09/17 10:25:57;;;;;;;9.52;4.47;;;;;;;19.80;100.00;93693.88;5151903;27;20206;-78
2022/09/17 10:28:49;;;;;;;7.38;4.15;;;;;;;19.71;100.00;93706.22;5152216;27;20203;-78
2022/09/17 10:31:17;;;;;;;13.15;4.57;;;;;;;19.65;100.00;93705.53;5145397;27;20191;-78
2022/09/17 10:33:57;;;;;;;9.63;4.55;;;;;;;19.69;100.00;93713.63;5144802;27;20206;-78
2022/09/17 10:36:39;;;;;;;9.63;5.00;;;;;;;19.73;100.00;93717.25;5152630;27;20202;-78
2022/09/17 10:39:43;;;;;;;10.85;5.20;;;;;;;19.69;100.00;93734.72;5151982;27;20194;-79
2022/09/17 10:42:14;;;;;;;13.13;5.47;;;;;;;19.71;100.00;93700.97;5067928;28;20221;-78
2022/09/17 10:44:51;;;;;;;8.80;5.20;;;;;;;19.57;100.00;93694.91;5131863;27;20195;-78
2022/09/17 10:47:24;;;;;;;9.10;5.03;;;;;;;19.46;100.00;93683.03;5135984;27;20210;-79
2022/09/17 10:49:56;;;;;;;7.60;4.20;;;;;;;19.33;100.00;93692.53;5148504;27;20205;-79
2022/09/17 10:52:26;;;;;;;9.32;4.40;;;;;;;19.39;100.00;93677.41;5140428;27;20235;-77
2022/09/17 10:55:17;;;;;;;12.20;5.20;;;;;;;19.31;100.00;93678.09;5149709;27;20198;-79
2022/09/17 10:58:13;;;;;;;9.32;3.55;;;;;;;19.46;100.00;93694.38;5145447;27;20219;-80
2022/09/17 11:00:48;;;;;;;7.03;3.60;;;;;;;19.49;100.00;93685.06;5143977;27;20289;-79
2022/09/17 11:03:47;;;;;;;8.50;4.25;;;;;;;19.63;100.00;93709.56;5151538;27;20241;-79
2022/09/17 11:06:40;;;;;;;6.05;3.58;;;;;;;19.41;100.00;93723.47;5151840;27;20226;-78
2022/09/17 11:09:19;;;;;;;6.10;3.40;;;;;;;19.53;100.00;93710.56;5155959;27;20207;-82
2022/09/17 11:12:02;;;;;;;6.25;3.67;;;;;;;19.49;100.00;93724.63;5142722;27;20225;-81
2022/09/17 11:14:50;;;;;;;8.15;5.30;;;;;;;19.26;100.00;93703.44;5155254;27;20281;-79
2022/09/17 11:17:35;;;;;;;9.40;6.43;;;;;;;19.42;100.00;93732.94;5144567;27;20291;-81
2022/09/17 11:20:07;;;;;;;10.65;7.00;;;;;;;19.60;100.00;93720.69;5155324;27;20241;-79
2022/09/17 11:22:52;;;;;;;9.30;6.32;;;;;;;19.79;100.00;93737.16;5155152;27;20218;-78
2022/09/17 11:25:34;;;;;;;9.25;5.47;;;;;;;19.81;100.00;93719.19;5155159;27;20210;-79
2022/09/17 11:28:11;;;;;;;10.65;5.80;;;;;;;19.91;100.00;93712.91;5154577;27;20194;-78
2022/09/17 11:30:53;;;;;;;8.45;4.97;;;;;;;19.92;100.00;93725.00;5134191;27;20199;-76
2022/09/17 11:33:39;;;;;;;8.00;4.68;;;;;;;19.97;100.00;93715.09;5135536;27;20569;-76
2022/09/17 11:36:13;;;;;;;7.80;4.68;;;;;;;20.12;100.00;93712.13;5137450;27;20602;-76
2022/09/17 11:38:43;;;;;;;8.60;4.53;;;;;;;20.19;100.00;93701.16;5138085;27;20195;-75